VATSIM Germany Forum

Zurück   VATSIM Germany Forum > Community > Events

Events Ankündigungen von Events, Checkouts, TV-Terminen, usw.

Antwort
 
LinkBack Themen-Optionen Ansicht
Alt 2018-01-22, 18:40   #201 (permalink)
VATSIM Germany RG München Chief
 
Benutzerbild von Dietmar Brinschwitz
 
Registriert seit: 2005-09-03
Ort: Ansbach
Alter: 57
Beiträge: 1.524
Danke erteilt: 3.715
2.174 Danksagungen in 832 Beiträgen erhalten
Standard

Heute die Neuauflage des "Oldie Day's"

Wir haben heute mal Novemberwetter gebucht haben wir nicht schon fast Februar
Zitat:
EDDN 221720Z VRB01KT 2300 -DZ BR FEW001 OVC003 01/01 Q1010 R28/29//94 NOSIG

TAF EDDN 221700Z 2218/2318 VRB03KT 3500 BR OVC003
TEMPO 2218/2222 2000 -DZ BR
BECMG 2222/2224 28006KT 6000 OVC006
PROB40
TEMPO 2222/2306 3000 -DZ BR
BECMG 2305/2308 SCT007 BKN012
BECMG 2309/2311 SCT010 BKN020
BECMG 2316/2318 14005KT
Aber nichts desto trotz haben sich die "Nembercher" auf viel Verkehr von und nach DüDo zum CPT eingerichtet. Also lasst die Strecke EDDN-EDDL und zurück glühen
__________________
Gruß Dietmar
DBGUN (Citation X)
DEGUN/DIDDI (Robin 400 - C 182 - PA 28 - PA31)
Dietmar Brinschwitz ist offline   Mit Zitat antworten
Alt 2018-01-29, 15:21   #202 (permalink)
VATSIM Germany ATC-TD Chief
 
Registriert seit: 2009-10-11
Ort: 3NM nordöstlich DN456
Alter: 63
Beiträge: 4.583
Danke erteilt: 3.053
6.025 Danksagungen in 2.650 Beiträgen erhalten
Standard

Für das am nächsten Samstag stattfindende "ToyFair-FlyIn" müssen heute Vectoren gespart werden. Es ist also verstärkt mit Standard-ILS bzw RNAV-Anflügen zu rechnen.

Mit der Wettervorhersage
Zitat:
EDDN 291100Z 2912/3012 24010KT 9999 OVC020 TEMPO 2912/3002 26015G25KT BKN012 PROB30 TEMPO 2920/3002 4000 -RADZ BKN008 BECMG 3005/3008 29005KT=
dürften die Anflüge voll in IMC durchgeführt werden.

Sollten die Standards nicht funktionieren kann mit SRA-Anflügen geholfen werden.
__________________
Leiter ATC Training vACC Germany | Deputy RG München | VATSIM Supervisor
Bernd Mehl ist offline   Mit Zitat antworten
Alt 2018-02-05, 11:54   #203 (permalink)
VATSIM Germany ATC-TD Chief
 
Registriert seit: 2009-10-11
Ort: 3NM nordöstlich DN456
Alter: 63
Beiträge: 4.583
Danke erteilt: 3.053
6.025 Danksagungen in 2.650 Beiträgen erhalten
Standard

Die Spielwarenmesse ist -auch real- beendet. Die letzten Aussteller und Besucher müssen zurück in die Heimat. Nach Informationen der -realen- Towerbesatzung werden inzwischen 50% der Flugpläne per PDC eingereicht. Diesen Service bietet heute auch der EDDN_GND.

Wer vor der Rückreise noch etwas Zeit hat kann bei bestem VFR-Wetter vorher noch einen Flug über das Messegelände -südwestlich vom Pflichtmeldepunkt Foxtrott- und die nähere Umgebung machen.

Die Nürnberger Crew erwartet euch.

Zitat:
EDDN 050500Z 0506/0606 05003KT CAVOK BECMG 0508/0510 08009KT BECMG 0515/0517 07004KT=
__________________
Leiter ATC Training vACC Germany | Deputy RG München | VATSIM Supervisor
Bernd Mehl ist offline   Mit Zitat antworten
Alt 2018-02-12, 14:48   #204 (permalink)
VATSIM Germany RG München Chief
 
Benutzerbild von Dietmar Brinschwitz
 
Registriert seit: 2005-09-03
Ort: Ansbach
Alter: 57
Beiträge: 1.524
Danke erteilt: 3.715
2.174 Danksagungen in 832 Beiträgen erhalten
Standard

Da heute viele "Narren" und "Jecken" unterwegs sind, bieten wir als TOP Besetzung am Albrecht Dürer Airport für unsere Kunden:

-einen "LM" am Boden
-einen "Chartszeichner" als APP
-einen "Eventler- und NAV Verantwortlichen" als "Sachsen"
und dazwischen noch unseren "Michael".....als TWR

also genügend "Verrückte" in der närrischen Zeit.

Und dazu das heute Wetter:
Zitat:
EDDN 121320Z 30008KT 9999 FEW012TCU BKN056 01/M02 Q1014 R28/29//95 TEMPO 2500 SHSN

TAF EDDN 121100Z 1212/1312 28010KT 9999 BKN020 BKN040
PROB30
TEMPO 1212/1217 30015KT 2000 SHSN BKN010 BKN020CB
PROB30
TEMPO 1217/1222 4000 -SHSN BKN014TCU
BECMG 1217/1219 24005KT
BECMG 1222/1301 13005KT
__________________
Gruß Dietmar
DBGUN (Citation X)
DEGUN/DIDDI (Robin 400 - C 182 - PA 28 - PA31)
Dietmar Brinschwitz ist offline   Mit Zitat antworten
Alt 2018-02-19, 18:51   #205 (permalink)
VATSIM Germany RG München Chief
 
Benutzerbild von Dietmar Brinschwitz
 
Registriert seit: 2005-09-03
Ort: Ansbach
Alter: 57
Beiträge: 1.524
Danke erteilt: 3.715
2.174 Danksagungen in 832 Beiträgen erhalten
Standard

Bei uns wird nicht "gefastet", also bei Catering nachfragen, ob noch Brötchen für Extraholding in EDDN da sind.

Wettertechnisch sind wir heute bei ruhigem Winterwetter mit leichten Minusgraden:
Zitat:
EDDN 191720Z 24006KT CAVOK M01/M04 Q1017 NOSIG

TAF EDDN 191700Z 1918/2018 VRB02KT 9999 BKN020
Also auf gehts - zum Aufwärmen in das Cockpit und ab auf die bekannten Strecken!
__________________
Gruß Dietmar
DBGUN (Citation X)
DEGUN/DIDDI (Robin 400 - C 182 - PA 28 - PA31)
Dietmar Brinschwitz ist offline   Mit Zitat antworten
Alt 2018-02-26, 17:43   #206 (permalink)
VATSIM Germany RG München Chief
 
Benutzerbild von Dietmar Brinschwitz
 
Registriert seit: 2005-09-03
Ort: Ansbach
Alter: 57
Beiträge: 1.524
Danke erteilt: 3.715
2.174 Danksagungen in 832 Beiträgen erhalten
Standard

Das Arbeitsshuttle EDDF-EDDM ist vorbei, heute gehts ans Shuttle EDDN out-/inbound (evtl. EDDL), damit uns bei dieser klirrenden Kälte warm wird.

Wir haben eine Besetzung von GND - CTR auf die Beine gestellt, Brötchen geschmiert und den übrigen Glühwein zum Warmhalten aufgesetzt

Folgendes BIBBERWETTER erwartet euch heute:
Zitat:
EDDN 261620Z 02011KT 340V050 9999 FEW048 M06/M16 Q1020 NOSIG

TAF EDDN 261100Z 2612/2712 01012KT 9999 SCT035
BECMG 2616/2618 04005KT
__________________
Gruß Dietmar
DBGUN (Citation X)
DEGUN/DIDDI (Robin 400 - C 182 - PA 28 - PA31)

Geändert von Dietmar Brinschwitz (2018-02-26 um 17:46 Uhr)
Dietmar Brinschwitz ist offline   Mit Zitat antworten
Alt 2018-03-19, 17:08   #207 (permalink)
VATSIM Germany RG München Chief
 
Benutzerbild von Dietmar Brinschwitz
 
Registriert seit: 2005-09-03
Ort: Ansbach
Alter: 57
Beiträge: 1.524
Danke erteilt: 3.715
2.174 Danksagungen in 832 Beiträgen erhalten
Standard

Back to the roots.... Nürnberg heute wieder bestzt mit Oldies and Youngsters

Wir freuen uns heute auf mächtig viel Verkehr von und nach Nürnberg bei gefühlt klirrender Kälte, die eigentlich schon durch Frühlingswärme abgelöst sein sollte

Zitat:
EDDN 191550Z 03006KT 330V080 CAVOK 02/M09 Q1008 R10/19//95 NOSIG
TAF: EDDN 191100Z 1912/2012 04007KT 9999 FEW040 BECMG 1917/1919 VRB03KT BECMG 2007/2009 30008KT
__________________
Gruß Dietmar
DBGUN (Citation X)
DEGUN/DIDDI (Robin 400 - C 182 - PA 28 - PA31)
Dietmar Brinschwitz ist offline   Mit Zitat antworten
Alt 2018-03-26, 19:05   #208 (permalink)
VATSIM Germany RG München Chief
 
Benutzerbild von Dietmar Brinschwitz
 
Registriert seit: 2005-09-03
Ort: Ansbach
Alter: 57
Beiträge: 1.524
Danke erteilt: 3.715
2.174 Danksagungen in 832 Beiträgen erhalten
Standard

Heute ist wieder am Albrecht-Dürer-Airport einiges geboten.

Die "Gurkenschneiderfraktion" ist im Anflug aus EDDR: siehe Drück mich fest

Wetter schaut gut aus:
Zitat:
EDDN 260650Z VRB02KT CAVOK 01/M01 Q1011 NOSIG
TAF:
EDDN 260500Z 2606/2706 VRB03KT CAVOK BECMG 2607/2609 32007KT BECMG 2616/2618 26003KT TEMPO 2620/2623 4000 -RASN OVC010 TEMPO 2703/2706 4000 BR BKN006
Daneben findet sich auch bestimmt der eine oder andere für einen Flug von/nach EDDL oder anderswohin

Also auf gehts......
__________________
Gruß Dietmar
DBGUN (Citation X)
DEGUN/DIDDI (Robin 400 - C 182 - PA 28 - PA31)
Dietmar Brinschwitz ist offline   Mit Zitat antworten
Danksagungen
Alt 2018-04-02, 18:48   #209 (permalink)
VATSIM Germany RG München Chief
 
Benutzerbild von Dietmar Brinschwitz
 
Registriert seit: 2005-09-03
Ort: Ansbach
Alter: 57
Beiträge: 1.524
Danke erteilt: 3.715
2.174 Danksagungen in 832 Beiträgen erhalten
Standard

Ostereier sollten alle gefunden sein, wenn nicht findet ihr vielleicht noch welche in EDDN am Airport.

Heutiges Angebot: Jeder der ankommt und ein Osterei findet, daf es behalten!!

Wetter schaut ja heut nicht nur real gut aus und lädt zu einem Flug von/nach Nürnberg ein:

Zitat:
EDDN 021620Z 18007KT 140V210 CAVOK 14/M01 Q1007 NOSIG

TAF:
EDDN 021100Z 0212/0312 19007KT 9999 FEW035 BECMG 0216/0218 12008KT BECMG 0307/0309 19008KT
Bis gleich auf der Welle
__________________
Gruß Dietmar
DBGUN (Citation X)
DEGUN/DIDDI (Robin 400 - C 182 - PA 28 - PA31)
Dietmar Brinschwitz ist offline   Mit Zitat antworten
Alt 2018-04-09, 13:43   #210 (permalink)
 
Registriert seit: 2017-07-28
Ort: EDDM
Beiträge: 45
Danke erteilt: 144
85 Danksagungen in 30 Beiträgen erhalten
Standard

Zitat:
EDDN 091120Z 13006KT 090V180 CAVOK 19/07 Q1005 NOSIG

TAF: EDDN 091100Z 0912/1012 10005KT CAVOK BECMG 0920/0922 VRB03KT BECMG 1010/1012 28007KT
CAVOK, 19° C, was gibt es da schöneres als heute Abend ab 1730z (1930 local) in die schöne fränkische Metropole zu fliegen.
Wie immer Montags bietet sich der Flug von oder nach Düsseldorf an.

Bis später, wir freuen uns auf euch
__________________
Michael Hoffman ist offline   Mit Zitat antworten
Antwort

  VATSIM Germany Forum > Community > Events


Themen-Optionen
Ansicht

Forumregeln
Es ist dir nicht erlaubt, neue Themen zu verfassen.
Es ist dir nicht erlaubt, auf Beiträge zu antworten.
Es ist dir nicht erlaubt, Anhänge hochzuladen.
Es ist dir nicht erlaubt, deine Beiträge zu bearbeiten.

BB-Code ist an.
Smileys sind an.
[IMG] Code ist an.
HTML-Code ist aus.
Trackbacks are an
Pingbacks are an
Refbacks are an



Alle Zeitangaben in WEZ +2. Es ist jetzt 06:13 Uhr.


Powered by vBulletin® Version 3.8.4 (Deutsch)
Copyright ©2000 - 2018, Jelsoft Enterprises Ltd.
Template-Modifikationen durch TMS
© 2006 - 2018 vatsim-germany.org